sensor_id;sensor_type;location;lat;lon;timestamp;P1;durP1;ratioP1;P2;durP2;ratioP2
17528;SDS011;8882;53.192;8.184;2023-07-29T00:02:16;6.43;;;5.17;;
17528;SDS011;8882;53.192;8.184;2023-07-29T00:04:42;7.17;;;5.57;;
17528;SDS011;8882;53.192;8.184;2023-07-29T00:07:07;8.68;;;5.07;;
17528;SDS011;8882;53.192;8.184;2023-07-29T00:09:32;6.37;;;5.13;;
17528;SDS011;8882;53.192;8.184;2023-07-29T00:11:58;5.97;;;4.73;;
17528;SDS011;8882;53.192;8.184;2023-07-29T00:14:23;10.03;;;5.87;;
17528;SDS011;8882;53.192;8.184;2023-07-29T00:16:49;7.93;;;5.17;;
17528;SDS011;8882;53.192;8.184;2023-07-29T00:19:14;8.73;;;5.50;;
17528;SDS011;8882;53.192;8.184;2023-07-29T00:21:40;6.83;;;5.27;;
17528;SDS011;8882;53.192;8.184;2023-07-29T00:24:06;6.03;;;4.50;;
17528;SDS011;8882;53.192;8.184;2023-07-29T00:26:31;7.00;;;5.10;;
17528;SDS011;8882;53.192;8.184;2023-07-29T00:28:57;6.90;;;4.77;;
17528;SDS011;8882;53.192;8.184;2023-07-29T00:31:23;7.23;;;4.73;;
17528;SDS011;8882;53.192;8.184;2023-07-29T00:33:49;8.47;;;5.47;;
17528;SDS011;8882;53.192;8.184;2023-07-29T00:36:15;6.83;;;4.83;;
17528;SDS011;8882;53.192;8.184;2023-07-29T00:38:40;8.43;;;5.40;;
17528;SDS011;8882;53.192;8.184;2023-07-29T00:41:06;5.80;;;5.03;;
17528;SDS011;8882;53.192;8.184;2023-07-29T00:43:32;7.80;;;4.93;;
17528;SDS011;8882;53.192;8.184;2023-07-29T00:45:59;9.80;;;4.83;;
17528;SDS011;8882;53.192;8.184;2023-07-29T00:48:25;8.27;;;4.43;;
17528;SDS011;8882;53.192;8.184;2023-07-29T00:50:51;6.80;;;4.50;;
17528;SDS011;8882;53.192;8.184;2023-07-29T00:53:17;5.87;;;4.60;;
17528;SDS011;8882;53.192;8.184;2023-07-29T00:55:42;4.90;;;4.40;;
17528;SDS011;8882;53.192;8.184;2023-07-29T00:58:09;5.87;;;5.03;;
17528;SDS011;8882;53.192;8.184;2023-07-29T01:00:35;6.03;;;5.00;;
17528;SDS011;8882;53.192;8.184;2023-07-29T01:03:01;5.93;;;4.20;;
17528;SDS011;8882;53.192;8.184;2023-07-29T01:05:29;9.13;;;5.50;;
17528;SDS011;8882;53.192;8.184;2023-07-29T01:08:06;6.50;;;4.70;;
17528;SDS011;8882;53.192;8.184;2023-07-29T01:10:50;6.90;;;5.40;;
17528;SDS011;8882;53.192;8.184;2023-07-29T01:13:31;7.37;;;5.03;;
17528;SDS011;8882;53.192;8.184;2023-07-29T01:16:08;8.03;;;5.03;;
17528;SDS011;8882;53.192;8.184;2023-07-29T01:18:42;7.20;;;5.70;;
17528;SDS011;8882;53.192;8.184;2023-07-29T01:21:11;9.57;;;5.97;;
17528;SDS011;8882;53.192;8.184;2023-07-29T01:23:39;7.20;;;5.30;;
17528;SDS011;8882;53.192;8.184;2023-07-29T01:26:04;7.53;;;6.23;;
17528;SDS011;8882;53.192;8.184;2023-07-29T01:28:30;7.83;;;5.53;;
17528;SDS011;8882;53.192;8.184;2023-07-29T01:31:40;7.37;;;5.90;;
17528;SDS011;8882;53.192;8.184;2023-07-29T01:34:04;8.23;;;6.20;;
17528;SDS011;8882;53.192;8.184;2023-07-29T01:36:38;7.60;;;5.87;;
17528;SDS011;8882;53.192;8.184;2023-07-29T01:39:06;9.00;;;5.63;;
17528;SDS011;8882;53.192;8.184;2023-07-29T01:41:33;11.40;;;6.30;;
17528;SDS011;8882;53.192;8.184;2023-07-29T01:43:59;9.70;;;7.00;;
17528;SDS011;8882;53.192;8.184;2023-07-29T01:46:26;8.97;;;7.27;;
17528;SDS011;8882;53.192;8.184;2023-07-29T01:48:52;9.33;;;6.50;;
17528;SDS011;8882;53.192;8.184;2023-07-29T01:51:17;9.57;;;6.90;;
17528;SDS011;8882;53.192;8.184;2023-07-29T01:53:43;9.33;;;6.67;;
17528;SDS011;8882;53.192;8.184;2023-07-29T01:56:08;10.43;;;6.47;;
17528;SDS011;8882;53.192;8.184;2023-07-29T01:58:34;8.77;;;7.27;;
17528;SDS011;8882;53.192;8.184;2023-07-29T02:00:59;12.83;;;7.57;;
17528;SDS011;8882;53.192;8.184;2023-07-29T02:03:25;11.17;;;7.37;;
17528;SDS011;8882;53.192;8.184;2023-07-29T02:05:50;9.50;;;7.27;;
17528;SDS011;8882;53.192;8.184;2023-07-29T02:08:16;12.80;;;7.70;;
17528;SDS011;8882;53.192;8.184;2023-07-29T02:10:41;11.83;;;8.13;;
17528;SDS011;8882;53.192;8.184;2023-07-29T02:13:10;11.17;;;7.83;;
17528;SDS011;8882;53.192;8.184;2023-07-29T02:15:35;12.27;;;7.87;;
17528;SDS011;8882;53.192;8.184;2023-07-29T02:18:01;10.23;;;7.90;;
17528;SDS011;8882;53.192;8.184;2023-07-29T02:20:27;12.63;;;8.50;;
17528;SDS011;8882;53.192;8.184;2023-07-29T02:22:52;12.30;;;7.90;;
17528;SDS011;8882;53.192;8.184;2023-07-29T02:25:18;11.83;;;8.30;;
17528;SDS011;8882;53.192;8.184;2023-07-29T02:27:43;11.00;;;8.50;;
17528;SDS011;8882;53.192;8.184;2023-07-29T02:30:09;10.73;;;8.07;;
17528;SDS011;8882;53.192;8.184;2023-07-29T02:32:35;11.00;;;8.53;;
17528;SDS011;8882;53.192;8.184;2023-07-29T02:35:00;10.63;;;8.37;;
17528;SDS011;8882;53.192;8.184;2023-07-29T02:37:26;11.30;;;8.40;;
17528;SDS011;8882;53.192;8.184;2023-07-29T02:39:51;9.83;;;8.07;;
17528;SDS011;8882;53.192;8.184;2023-07-29T02:42:17;10.17;;;8.50;;
17528;SDS011;8882;53.192;8.184;2023-07-29T02:44:42;10.97;;;8.40;;
17528;SDS011;8882;53.192;8.184;2023-07-29T02:47:08;8.33;;;7.47;;
17528;SDS011;8882;53.192;8.184;2023-07-29T02:49:33;9.60;;;7.90;;
17528;SDS011;8882;53.192;8.184;2023-07-29T02:51:59;8.43;;;7.27;;
17528;SDS011;8882;53.192;8.184;2023-07-29T02:54:24;9.90;;;7.13;;
17528;SDS011;8882;53.192;8.184;2023-07-29T02:56:50;10.50;;;7.50;;
17528;SDS011;8882;53.192;8.184;2023-07-29T02:59:16;11.07;;;7.00;;
17528;SDS011;8882;53.192;8.184;2023-07-29T03:01:41;8.17;;;7.23;;
17528;SDS011;8882;53.192;8.184;2023-07-29T03:04:07;10.77;;;7.20;;
17528;SDS011;8882;53.192;8.184;2023-07-29T03:06:33;10.20;;;7.30;;
17528;SDS011;8882;53.192;8.184;2023-07-29T03:08:58;9.57;;;7.30;;
17528;SDS011;8882;53.192;8.184;2023-07-29T03:11:24;8.63;;;7.40;;
17528;SDS011;8882;53.192;8.184;2023-07-29T03:13:49;8.93;;;7.70;;
17528;SDS011;8882;53.192;8.184;2023-07-29T03:16:15;9.20;;;7.60;;
17528;SDS011;8882;53.192;8.184;2023-07-29T03:18:42;8.07;;;6.97;;
17528;SDS011;8882;53.192;8.184;2023-07-29T03:21:09;8.43;;;7.50;;
17528;SDS011;8882;53.192;8.184;2023-07-29T03:23:35;8.33;;;7.53;;
17528;SDS011;8882;53.192;8.184;2023-07-29T03:26:02;8.50;;;7.17;;
17528;SDS011;8882;53.192;8.184;2023-07-29T03:28:34;10.20;;;7.53;;
17528;SDS011;8882;53.192;8.184;2023-07-29T03:31:02;8.67;;;7.50;;
17528;SDS011;8882;53.192;8.184;2023-07-29T03:33:28;9.37;;;7.80;;
17528;SDS011;8882;53.192;8.184;2023-07-29T03:35:54;8.80;;;7.77;;
17528;SDS011;8882;53.192;8.184;2023-07-29T03:38:19;9.63;;;7.50;;
17528;SDS011;8882;53.192;8.184;2023-07-29T03:40:45;11.27;;;8.13;;
17528;SDS011;8882;53.192;8.184;2023-07-29T03:43:10;10.50;;;8.60;;
17528;SDS011;8882;53.192;8.184;2023-07-29T03:45:36;11.53;;;7.80;;
17528;SDS011;8882;53.192;8.184;2023-07-29T03:48:02;11.40;;;8.70;;
17528;SDS011;8882;53.192;8.184;2023-07-29T03:50:28;12.63;;;8.33;;
17528;SDS011;8882;53.192;8.184;2023-07-29T03:52:54;11.23;;;7.80;;
17528;SDS011;8882;53.192;8.184;2023-07-29T03:55:20;8.83;;;7.83;;
17528;SDS011;8882;53.192;8.184;2023-07-29T03:57:46;14.13;;;8.87;;
17528;SDS011;8882;53.192;8.184;2023-07-29T04:00:11;10.10;;;8.60;;
17528;SDS011;8882;53.192;8.184;2023-07-29T04:02:37;12.30;;;9.17;;
17528;SDS011;8882;53.192;8.184;2023-07-29T04:05:04;9.97;;;8.63;;
17528;SDS011;8882;53.192;8.184;2023-07-29T04:07:30;13.77;;;9.43;;
17528;SDS011;8882;53.192;8.184;2023-07-29T04:09:56;12.00;;;9.13;;
17528;SDS011;8882;53.192;8.184;2023-07-29T04:12:22;13.83;;;9.70;;
17528;SDS011;8882;53.192;8.184;2023-07-29T04:14:48;12.10;;;9.90;;
17528;SDS011;8882;53.192;8.184;2023-07-29T04:17:13;12.57;;;9.87;;
17528;SDS011;8882;53.192;8.184;2023-07-29T04:19:39;13.13;;;9.70;;
17528;SDS011;8882;53.192;8.184;2023-07-29T04:22:05;14.90;;;10.30;;
17528;SDS011;8882;53.192;8.184;2023-07-29T04:24:30;14.30;;;9.80;;
17528;SDS011;8882;53.192;8.184;2023-07-29T04:26:56;12.97;;;9.80;;
17528;SDS011;8882;53.192;8.184;2023-07-29T04:29:21;13.67;;;10.13;;
17528;SDS011;8882;53.192;8.184;2023-07-29T04:31:48;16.23;;;11.10;;
17528;SDS011;8882;53.192;8.184;2023-07-29T04:34:17;12.77;;;10.47;;
17528;SDS011;8882;53.192;8.184;2023-07-29T04:36:43;17.83;;;10.87;;
17528;SDS011;8882;53.192;8.184;2023-07-29T04:39:08;15.17;;;10.30;;
17528;SDS011;8882;53.192;8.184;2023-07-29T04:41:34;12.67;;;10.47;;
17528;SDS011;8882;53.192;8.184;2023-07-29T04:43:59;18.50;;;11.07;;
17528;SDS011;8882;53.192;8.184;2023-07-29T04:46:25;15.73;;;11.10;;
17528;SDS011;8882;53.192;8.184;2023-07-29T04:48:50;15.60;;;10.63;;
17528;SDS011;8882;53.192;8.184;2023-07-29T04:51:16;15.87;;;11.57;;
17528;SDS011;8882;53.192;8.184;2023-07-29T04:53:41;15.87;;;11.03;;
17528;SDS011;8882;53.192;8.184;2023-07-29T04:56:07;16.27;;;11.53;;
17528;SDS011;8882;53.192;8.184;2023-07-29T04:58:32;18.30;;;11.70;;
17528;SDS011;8882;53.192;8.184;2023-07-29T05:01:00;18.10;;;12.07;;
17528;SDS011;8882;53.192;8.184;2023-07-29T05:03:26;21.70;;;13.23;;
17528;SDS011;8882;53.192;8.184;2023-07-29T05:05:52;16.47;;;11.90;;
17528;SDS011;8882;53.192;8.184;2023-07-29T05:08:19;19.70;;;12.93;;
17528;SDS011;8882;53.192;8.184;2023-07-29T05:10:48;19.90;;;13.23;;
17528;SDS011;8882;53.192;8.184;2023-07-29T05:13:15;22.43;;;13.53;;
17528;SDS011;8882;53.192;8.184;2023-07-29T05:15:40;20.63;;;13.93;;
17528;SDS011;8882;53.192;8.184;2023-07-29T05:18:06;19.80;;;13.20;;
17528;SDS011;8882;53.192;8.184;2023-07-29T05:20:31;18.53;;;12.63;;
17528;SDS011;8882;53.192;8.184;2023-07-29T05:22:57;23.20;;;13.23;;
17528;SDS011;8882;53.192;8.184;2023-07-29T05:25:22;19.20;;;12.77;;
17528;SDS011;8882;53.192;8.184;2023-07-29T05:27:48;20.53;;;12.83;;
17528;SDS011;8882;53.192;8.184;2023-07-29T05:30:13;21.87;;;12.73;;
17528;SDS011;8882;53.192;8.184;2023-07-29T05:32:39;16.70;;;11.83;;
17528;SDS011;8882;53.192;8.184;2023-07-29T05:35:04;23.73;;;14.27;;
17528;SDS011;8882;53.192;8.184;2023-07-29T05:37:30;21.03;;;12.90;;
17528;SDS011;8882;53.192;8.184;2023-07-29T05:39:55;18.17;;;12.60;;
17528;SDS011;8882;53.192;8.184;2023-07-29T05:42:21;19.30;;;11.47;;
17528;SDS011;8882;53.192;8.184;2023-07-29T05:44:46;19.97;;;13.27;;
17528;SDS011;8882;53.192;8.184;2023-07-29T05:47:12;17.80;;;12.07;;
17528;SDS011;8882;53.192;8.184;2023-07-29T05:49:37;18.23;;;12.63;;
17528;SDS011;8882;53.192;8.184;2023-07-29T05:52:03;18.43;;;12.50;;
17528;SDS011;8882;53.192;8.184;2023-07-29T05:54:29;19.67;;;12.47;;
17528;SDS011;8882;53.192;8.184;2023-07-29T05:56:54;20.77;;;13.80;;
17528;SDS011;8882;53.192;8.184;2023-07-29T05:59:20;18.40;;;11.37;;
17528;SDS011;8882;53.192;8.184;2023-07-29T06:01:45;17.70;;;12.07;;
17528;SDS011;8882;53.192;8.184;2023-07-29T06:04:11;14.67;;;9.87;;
17528;SDS011;8882;53.192;8.184;2023-07-29T06:06:36;15.23;;;10.63;;
17528;SDS011;8882;53.192;8.184;2023-07-29T06:09:02;14.10;;;10.17;;
17528;SDS011;8882;53.192;8.184;2023-07-29T06:11:27;14.77;;;9.87;;
17528;SDS011;8882;53.192;8.184;2023-07-29T06:13:53;14.33;;;9.73;;
17528;SDS011;8882;53.192;8.184;2023-07-29T06:16:18;14.30;;;10.00;;
17528;SDS011;8882;53.192;8.184;2023-07-29T06:18:44;16.43;;;10.23;;
17528;SDS011;8882;53.192;8.184;2023-07-29T06:21:10;13.20;;;9.67;;
17528;SDS011;8882;53.192;8.184;2023-07-29T06:23:41;13.33;;;9.33;;
17528;SDS011;8882;53.192;8.184;2023-07-29T06:26:08;12.67;;;9.27;;
17528;SDS011;8882;53.192;8.184;2023-07-29T06:28:33;13.17;;;9.07;;
17528;SDS011;8882;53.192;8.184;2023-07-29T06:30:59;15.27;;;9.43;;
17528;SDS011;8882;53.192;8.184;2023-07-29T06:33:24;12.83;;;9.83;;
17528;SDS011;8882;53.192;8.184;2023-07-29T06:35:50;10.63;;;7.97;;
17528;SDS011;8882;53.192;8.184;2023-07-29T06:38:15;11.57;;;8.70;;
17528;SDS011;8882;53.192;8.184;2023-07-29T06:40:46;13.13;;;8.50;;
17528;SDS011;8882;53.192;8.184;2023-07-29T06:43:12;11.97;;;8.03;;
17528;SDS011;8882;53.192;8.184;2023-07-29T06:45:37;14.13;;;7.60;;
17528;SDS011;8882;53.192;8.184;2023-07-29T06:48:04;12.27;;;7.73;;
17528;SDS011;8882;53.192;8.184;2023-07-29T06:50:29;11.43;;;7.70;;
17528;SDS011;8882;53.192;8.184;2023-07-29T06:52:55;10.63;;;7.23;;
17528;SDS011;8882;53.192;8.184;2023-07-29T06:55:20;10.37;;;7.57;;
17528;SDS011;8882;53.192;8.184;2023-07-29T06:57:46;12.13;;;6.80;;
17528;SDS011;8882;53.192;8.184;2023-07-29T07:00:11;11.53;;;7.20;;
17528;SDS011;8882;53.192;8.184;2023-07-29T07:02:37;10.17;;;6.10;;
17528;SDS011;8882;53.192;8.184;2023-07-29T07:05:02;11.03;;;7.07;;
17528;SDS011;8882;53.192;8.184;2023-07-29T07:07:28;10.50;;;6.10;;
17528;SDS011;8882;53.192;8.184;2023-07-29T07:09:54;7.27;;;5.87;;
17528;SDS011;8882;53.192;8.184;2023-07-29T07:12:19;8.43;;;6.40;;
17528;SDS011;8882;53.192;8.184;2023-07-29T07:14:45;8.50;;;5.87;;
17528;SDS011;8882;53.192;8.184;2023-07-29T07:17:10;8.43;;;5.37;;
17528;SDS011;8882;53.192;8.184;2023-07-29T07:19:36;7.87;;;5.63;;
17528;SDS011;8882;53.192;8.184;2023-07-29T07:22:02;5.97;;;4.57;;
17528;SDS011;8882;53.192;8.184;2023-07-29T07:24:27;7.73;;;5.30;;
17528;SDS011;8882;53.192;8.184;2023-07-29T07:26:53;6.93;;;5.17;;
17528;SDS011;8882;53.192;8.184;2023-07-29T07:29:18;5.53;;;4.33;;
17528;SDS011;8882;53.192;8.184;2023-07-29T07:31:49;5.43;;;4.23;;
17528;SDS011;8882;53.192;8.184;2023-07-29T07:34:17;7.73;;;4.50;;
17528;SDS011;8882;53.192;8.184;2023-07-29T07:36:43;6.57;;;4.20;;
17528;SDS011;8882;53.192;8.184;2023-07-29T07:39:09;7.50;;;4.40;;
17528;SDS011;8882;53.192;8.184;2023-07-29T07:41:34;8.63;;;3.77;;
17528;SDS011;8882;53.192;8.184;2023-07-29T07:44:00;4.67;;;3.60;;
17528;SDS011;8882;53.192;8.184;2023-07-29T07:46:25;7.10;;;3.57;;
17528;SDS011;8882;53.192;8.184;2023-07-29T07:48:51;3.33;;;3.00;;
17528;SDS011;8882;53.192;8.184;2023-07-29T07:51:16;3.83;;;2.97;;
17528;SDS011;8882;53.192;8.184;2023-07-29T07:53:42;4.80;;;3.40;;
17528;SDS011;8882;53.192;8.184;2023-07-29T07:56:07;4.63;;;3.50;;
17528;SDS011;8882;53.192;8.184;2023-07-29T07:58:33;5.43;;;3.50;;
17528;SDS011;8882;53.192;8.184;2023-07-29T08:01:02;4.17;;;3.50;;
17528;SDS011;8882;53.192;8.184;2023-07-29T08:03:32;5.80;;;3.30;;
17528;SDS011;8882;53.192;8.184;2023-07-29T08:05:57;4.13;;;2.93;;
17528;SDS011;8882;53.192;8.184;2023-07-29T08:08:23;5.37;;;2.53;;
17528;SDS011;8882;53.192;8.184;2023-07-29T08:10:49;3.87;;;2.70;;
17528;SDS011;8882;53.192;8.184;2023-07-29T08:13:15;3.43;;;2.90;;
17528;SDS011;8882;53.192;8.184;2023-07-29T08:15:41;3.77;;;2.90;;
17528;SDS011;8882;53.192;8.184;2023-07-29T08:18:06;3.53;;;2.83;;
17528;SDS011;8882;53.192;8.184;2023-07-29T08:20:32;3.07;;;2.63;;
17528;SDS011;8882;53.192;8.184;2023-07-29T08:22:57;4.73;;;2.37;;
17528;SDS011;8882;53.192;8.184;2023-07-29T08:25:23;3.80;;;2.73;;
17528;SDS011;8882;53.192;8.184;2023-07-29T08:27:49;4.23;;;2.63;;
17528;SDS011;8882;53.192;8.184;2023-07-29T08:30:14;3.97;;;1.90;;
17528;SDS011;8882;53.192;8.184;2023-07-29T08:32:41;2.70;;;2.20;;
17528;SDS011;8882;53.192;8.184;2023-07-29T08:35:07;3.13;;;1.63;;
17528;SDS011;8882;53.192;8.184;2023-07-29T08:37:32;4.70;;;2.00;;
17528;SDS011;8882;53.192;8.184;2023-07-29T08:39:58;5.32;;;2.17;;
17528;SDS011;8882;53.192;8.184;2023-07-29T08:42:24;6.18;;;2.08;;
17528;SDS011;8882;53.192;8.184;2023-07-29T08:44:55;2.83;;;2.35;;
17528;SDS011;8882;53.192;8.184;2023-07-29T08:47:25;2.30;;;2.10;;
17528;SDS011;8882;53.192;8.184;2023-07-29T08:49:50;3.35;;;2.30;;
17528;SDS011;8882;53.192;8.184;2023-07-29T08:52:17;3.60;;;2.05;;
17528;SDS011;8882;53.192;8.184;2023-07-29T08:54:43;3.63;;;2.25;;
17528;SDS011;8882;53.192;8.184;2023-07-29T08:57:09;3.03;;;2.22;;
17528;SDS011;8882;53.192;8.184;2023-07-29T08:59:35;3.28;;;2.67;;
17528;SDS011;8882;53.192;8.184;2023-07-29T09:02:01;4.10;;;3.00;;
17528;SDS011;8882;53.192;8.184;2023-07-29T09:04:26;4.85;;;3.08;;
17528;SDS011;8882;53.192;8.184;2023-07-29T09:06:53;3.83;;;2.65;;
17528;SDS011;8882;53.192;8.184;2023-07-29T09:09:21;3.92;;;2.95;;
17528;SDS011;8882;53.192;8.184;2023-07-29T09:11:47;5.20;;;3.10;;
17528;SDS011;8882;53.192;8.184;2023-07-29T09:14:13;3.15;;;2.70;;
17528;SDS011;8882;53.192;8.184;2023-07-29T09:16:39;4.53;;;2.60;;
17528;SDS011;8882;53.192;8.184;2023-07-29T09:19:05;4.70;;;2.38;;
17528;SDS011;8882;53.192;8.184;2023-07-29T09:21:31;5.10;;;2.28;;
17528;SDS011;8882;53.192;8.184;2023-07-29T09:23:57;3.35;;;2.35;;
17528;SDS011;8882;53.192;8.184;2023-07-29T09:26:29;4.53;;;2.63;;
17528;SDS011;8882;53.192;8.184;2023-07-29T09:28:56;4.72;;;2.17;;
17528;SDS011;8882;53.192;8.184;2023-07-29T09:31:24;2.70;;;2.50;;
17528;SDS011;8882;53.192;8.184;2023-07-29T09:33:55;2.20;;;1.65;;
17528;SDS011;8882;53.192;8.184;2023-07-29T09:36:23;2.92;;;2.00;;
17528;SDS011;8882;53.192;8.184;2023-07-29T09:38:51;2.15;;;1.60;;
17528;SDS011;8882;53.192;8.184;2023-07-29T09:41:18;2.63;;;1.98;;
17528;SDS011;8882;53.192;8.184;2023-07-29T09:43:44;3.13;;;1.90;;
17528;SDS011;8882;53.192;8.184;2023-07-29T09:46:09;2.22;;;1.58;;
17528;SDS011;8882;53.192;8.184;2023-07-29T09:48:35;5.90;;;1.80;;
17528;SDS011;8882;53.192;8.184;2023-07-29T09:51:12;2.08;;;1.60;;
17528;SDS011;8882;53.192;8.184;2023-07-29T09:53:39;4.18;;;1.60;;
17528;SDS011;8882;53.192;8.184;2023-07-29T09:56:07;3.03;;;1.70;;
17528;SDS011;8882;53.192;8.184;2023-07-29T09:58:33;2.13;;;1.73;;
17528;SDS011;8882;53.192;8.184;2023-07-29T10:00:58;2.63;;;1.60;;
17528;SDS011;8882;53.192;8.184;2023-07-29T10:03:24;2.90;;;1.38;;
17528;SDS011;8882;53.192;8.184;2023-07-29T10:05:50;2.08;;;1.58;;
17528;SDS011;8882;53.192;8.184;2023-07-29T10:08:16;2.03;;;1.48;;
17528;SDS011;8882;53.192;8.184;2023-07-29T10:10:43;2.53;;;1.63;;
17528;SDS011;8882;53.192;8.184;2023-07-29T10:13:10;1.75;;;1.63;;
17528;SDS011;8882;53.192;8.184;2023-07-29T10:15:36;2.00;;;1.80;;
17528;SDS011;8882;53.192;8.184;2023-07-29T10:18:02;1.63;;;1.42;;
17528;SDS011;8882;53.192;8.184;2023-07-29T10:20:30;1.88;;;1.67;;
17528;SDS011;8882;53.192;8.184;2023-07-29T10:22:59;2.17;;;1.55;;
17528;SDS011;8882;53.192;8.184;2023-07-29T10:25:26;2.65;;;1.40;;
17528;SDS011;8882;53.192;8.184;2023-07-29T10:28:06;1.58;;;1.48;;
17528;SDS011;8882;53.192;8.184;2023-07-29T10:30:33;2.45;;;1.75;;
17528;SDS011;8882;53.192;8.184;2023-07-29T10:32:59;1.60;;;1.50;;
17528;SDS011;8882;53.192;8.184;2023-07-29T10:35:27;3.10;;;1.77;;
17528;SDS011;8882;53.192;8.184;2023-07-29T10:37:53;3.92;;;1.58;;
17528;SDS011;8882;53.192;8.184;2023-07-29T10:40:20;2.63;;;1.50;;
17528;SDS011;8882;53.192;8.184;2023-07-29T10:42:59;4.47;;;1.92;;
17528;SDS011;8882;53.192;8.184;2023-07-29T10:45:36;2.65;;;1.50;;
17528;SDS011;8882;53.192;8.184;2023-07-29T10:48:08;2.60;;;1.65;;
17528;SDS011;8882;53.192;8.184;2023-07-29T10:50:36;4.00;;;1.70;;
17528;SDS011;8882;53.192;8.184;2023-07-29T10:53:01;4.03;;;1.90;;
17528;SDS011;8882;53.192;8.184;2023-07-29T10:55:34;2.00;;;1.58;;
17528;SDS011;8882;53.192;8.184;2023-07-29T10:58:11;2.40;;;1.55;;
17528;SDS011;8882;53.192;8.184;2023-07-29T11:00:42;6.13;;;1.80;;
17528;SDS011;8882;53.192;8.184;2023-07-29T11:03:09;3.83;;;1.73;;
17528;SDS011;8882;53.192;8.184;2023-07-29T11:05:52;1.95;;;1.58;;
17528;SDS011;8882;53.192;8.184;2023-07-29T11:08:27;4.80;;;2.03;;
17528;SDS011;8882;53.192;8.184;2023-07-29T11:11:12;2.13;;;1.65;;
17528;SDS011;8882;53.192;8.184;2023-07-29T11:13:38;3.50;;;1.92;;
17528;SDS011;8882;53.192;8.184;2023-07-29T11:16:04;3.30;;;1.90;;
17528;SDS011;8882;53.192;8.184;2023-07-29T11:18:34;3.92;;;2.03;;
17528;SDS011;8882;53.192;8.184;2023-07-29T11:21:01;3.97;;;1.65;;
17528;SDS011;8882;53.192;8.184;2023-07-29T11:23:29;2.47;;;1.65;;
17528;SDS011;8882;53.192;8.184;2023-07-29T11:25:56;2.88;;;1.60;;
17528;SDS011;8882;53.192;8.184;2023-07-29T11:28:21;2.05;;;1.60;;
17528;SDS011;8882;53.192;8.184;2023-07-29T11:30:47;2.13;;;1.58;;
17528;SDS011;8882;53.192;8.184;2023-07-29T11:33:17;2.65;;;1.67;;
17528;SDS011;8882;53.192;8.184;2023-07-29T11:35:44;2.15;;;1.70;;
17528;SDS011;8882;53.192;8.184;2023-07-29T11:38:14;5.00;;;2.08;;
17528;SDS011;8882;53.192;8.184;2023-07-29T11:40:43;3.00;;;1.75;;
17528;SDS011;8882;53.192;8.184;2023-07-29T11:43:18;2.60;;;1.52;;
17528;SDS011;8882;53.192;8.184;2023-07-29T11:45:44;2.60;;;1.95;;
17528;SDS011;8882;53.192;8.184;2023-07-29T11:48:09;2.65;;;1.63;;
17528;SDS011;8882;53.192;8.184;2023-07-29T11:50:35;1.88;;;1.50;;
17528;SDS011;8882;53.192;8.184;2023-07-29T11:53:01;3.20;;;1.60;;
17528;SDS011;8882;53.192;8.184;2023-07-29T11:55:26;1.63;;;1.35;;
17528;SDS011;8882;53.192;8.184;2023-07-29T11:57:52;1.95;;;1.52;;
17528;SDS011;8882;53.192;8.184;2023-07-29T12:00:18;2.22;;;1.70;;
17528;SDS011;8882;53.192;8.184;2023-07-29T12:02:43;2.08;;;1.85;;
17528;SDS011;8882;53.192;8.184;2023-07-29T12:05:11;2.88;;;1.75;;
17528;SDS011;8882;53.192;8.184;2023-07-29T12:07:39;3.45;;;1.60;;
17528;SDS011;8882;53.192;8.184;2023-07-29T12:10:05;2.60;;;1.88;;
17528;SDS011;8882;53.192;8.184;2023-07-29T12:12:31;3.30;;;1.33;;
17528;SDS011;8882;53.192;8.184;2023-07-29T12:14:56;1.85;;;1.50;;
17528;SDS011;8882;53.192;8.184;2023-07-29T12:17:22;2.35;;;1.55;;
17528;SDS011;8882;53.192;8.184;2023-07-29T12:19:48;1.77;;;1.35;;
17528;SDS011;8882;53.192;8.184;2023-07-29T12:22:17;2.05;;;1.50;;
17528;SDS011;8882;53.192;8.184;2023-07-29T12:24:43;1.30;;;1.20;;
17528;SDS011;8882;53.192;8.184;2023-07-29T12:27:12;1.73;;;1.40;;
17528;SDS011;8882;53.192;8.184;2023-07-29T12:29:40;2.20;;;1.58;;
17528;SDS011;8882;53.192;8.184;2023-07-29T12:32:08;2.25;;;1.52;;
17528;SDS011;8882;53.192;8.184;2023-07-29T12:34:34;1.48;;;1.38;;
17528;SDS011;8882;53.192;8.184;2023-07-29T12:37:02;2.30;;;1.55;;
17528;SDS011;8882;53.192;8.184;2023-07-29T12:39:29;2.25;;;1.38;;
17528;SDS011;8882;53.192;8.184;2023-07-29T12:41:57;2.63;;;1.38;;
17528;SDS011;8882;53.192;8.184;2023-07-29T12:44:25;2.17;;;1.60;;
17528;SDS011;8882;53.192;8.184;2023-07-29T12:46:54;4.38;;;1.67;;
17528;SDS011;8882;53.192;8.184;2023-07-29T12:49:20;3.08;;;1.45;;
17528;SDS011;8882;53.192;8.184;2023-07-29T12:51:46;1.92;;;1.30;;
17528;SDS011;8882;53.192;8.184;2023-07-29T12:54:11;2.25;;;1.17;;
17528;SDS011;8882;53.192;8.184;2023-07-29T12:56:36;3.13;;;1.40;;
17528;SDS011;8882;53.192;8.184;2023-07-29T12:59:02;1.20;;;1.10;;
17528;SDS011;8882;53.192;8.184;2023-07-29T13:01:28;1.73;;;1.30;;
17528;SDS011;8882;53.192;8.184;2023-07-29T13:03:54;1.00;;;1.00;;
17528;SDS011;8882;53.192;8.184;2023-07-29T13:06:21;3.80;;;1.20;;
17528;SDS011;8882;53.192;8.184;2023-07-29T13:08:46;1.67;;;1.17;;
17528;SDS011;8882;53.192;8.184;2023-07-29T13:11:12;1.55;;;1.27;;
17528;SDS011;8882;53.192;8.184;2023-07-29T13:13:38;1.30;;;1.20;;
17528;SDS011;8882;53.192;8.184;2023-07-29T13:16:03;1.75;;;1.00;;
17528;SDS011;8882;53.192;8.184;2023-07-29T13:18:29;3.70;;;1.85;;
17528;SDS011;8882;53.192;8.184;2023-07-29T13:20:55;2.20;;;1.30;;
17528;SDS011;8882;53.192;8.184;2023-07-29T13:23:21;1.30;;;1.20;;
17528;SDS011;8882;53.192;8.184;2023-07-29T13:25:47;3.50;;;1.27;;
17528;SDS011;8882;53.192;8.184;2023-07-29T13:28:12;2.22;;;1.00;;
17528;SDS011;8882;53.192;8.184;2023-07-29T13:30:38;2.08;;;1.48;;
17528;SDS011;8882;53.192;8.184;2023-07-29T13:33:05;4.75;;;1.55;;
17528;SDS011;8882;53.192;8.184;2023-07-29T13:35:31;4.63;;;1.80;;
17528;SDS011;8882;53.192;8.184;2023-07-29T13:37:57;3.08;;;1.98;;
17528;SDS011;8882;53.192;8.184;2023-07-29T13:40:22;2.30;;;1.50;;
17528;SDS011;8882;53.192;8.184;2023-07-29T13:42:48;1.70;;;1.40;;
17528;SDS011;8882;53.192;8.184;2023-07-29T13:45:13;1.45;;;1.35;;
17528;SDS011;8882;53.192;8.184;2023-07-29T13:47:39;1.95;;;1.80;;
17528;SDS011;8882;53.192;8.184;2023-07-29T13:50:05;1.70;;;1.60;;
17528;SDS011;8882;53.192;8.184;2023-07-29T13:52:32;3.03;;;1.77;;
17528;SDS011;8882;53.192;8.184;2023-07-29T13:54:58;3.72;;;1.80;;
17528;SDS011;8882;53.192;8.184;2023-07-29T13:57:23;2.20;;;2.00;;
17528;SDS011;8882;53.192;8.184;2023-07-29T13:59:49;2.17;;;1.98;;
17528;SDS011;8882;53.192;8.184;2023-07-29T14:02:14;4.78;;;2.20;;
17528;SDS011;8882;53.192;8.184;2023-07-29T14:04:40;2.30;;;2.10;;
17528;SDS011;8882;53.192;8.184;2023-07-29T14:07:05;3.83;;;2.60;;
17528;SDS011;8882;53.192;8.184;2023-07-29T14:09:30;6.25;;;2.78;;
17528;SDS011;8882;53.192;8.184;2023-07-29T14:11:56;2.30;;;2.10;;
17528;SDS011;8882;53.192;8.184;2023-07-29T14:14:22;3.20;;;2.50;;
17528;SDS011;8882;53.192;8.184;2023-07-29T14:16:47;4.65;;;3.10;;
17528;SDS011;8882;53.192;8.184;2023-07-29T14:19:14;4.78;;;3.58;;
17528;SDS011;8882;53.192;8.184;2023-07-29T14:21:39;3.35;;;2.45;;
17528;SDS011;8882;53.192;8.184;2023-07-29T14:24:05;3.47;;;3.10;;
17528;SDS011;8882;53.192;8.184;2023-07-29T14:26:31;3.33;;;2.80;;
17528;SDS011;8882;53.192;8.184;2023-07-29T14:28:56;4.97;;;3.03;;
17528;SDS011;8882;53.192;8.184;2023-07-29T14:31:22;3.40;;;2.63;;
17528;SDS011;8882;53.192;8.184;2023-07-29T14:33:47;2.42;;;2.20;;
17528;SDS011;8882;53.192;8.184;2023-07-29T14:36:14;2.85;;;2.50;;
17528;SDS011;8882;53.192;8.184;2023-07-29T14:38:40;3.95;;;2.38;;
17528;SDS011;8882;53.192;8.184;2023-07-29T14:41:06;5.05;;;1.90;;
17528;SDS011;8882;53.192;8.184;2023-07-29T14:43:31;2.30;;;2.10;;
17528;SDS011;8882;53.192;8.184;2023-07-29T14:45:57;2.33;;;1.60;;
17528;SDS011;8882;53.192;8.184;2023-07-29T14:48:23;2.20;;;2.00;;
17528;SDS011;8882;53.192;8.184;2023-07-29T14:50:48;2.10;;;1.90;;
17528;SDS011;8882;53.192;8.184;2023-07-29T14:53:14;4.38;;;2.38;;